sensor_id;sensor_type;location;lat;lon;timestamp;temperature;humidity
9103;DHT22;4587;51.434;6.788;2022-09-13T00:00:30;18.60;99.90
9103;DHT22;4587;51.434;6.788;2022-09-13T00:02:56;18.60;99.90
9103;DHT22;4587;51.434;6.788;2022-09-13T00:05:21;18.70;99.90
9103;DHT22;4587;51.434;6.788;2022-09-13T00:07:47;18.70;99.90
9103;DHT22;4587;51.434;6.788;2022-09-13T00:10:13;18.70;99.90
9103;DHT22;4587;51.434;6.788;2022-09-13T00:12:38;18.70;99.90
9103;DHT22;4587;51.434;6.788;2022-09-13T00:15:04;18.70;99.90
9103;DHT22;4587;51.434;6.788;2022-09-13T00:17:30;18.60;99.90
9103;DHT22;4587;51.434;6.788;2022-09-13T00:19:56;18.60;99.90
9103;DHT22;4587;51.434;6.788;2022-09-13T00:22:21;18.50;99.90
9103;DHT22;4587;51.434;6.788;2022-09-13T00:24:47;18.60;99.90
9103;DHT22;4587;51.434;6.788;2022-09-13T00:27:13;18.70;99.90
9103;DHT22;4587;51.434;6.788;2022-09-13T00:29:38;18.70;99.90
9103;DHT22;4587;51.434;6.788;2022-09-13T00:32:04;18.60;99.90
9103;DHT22;4587;51.434;6.788;2022-09-13T00:34:29;18.70;99.90
9103;DHT22;4587;51.434;6.788;2022-09-13T00:36:55;18.60;99.90
9103;DHT22;4587;51.434;6.788;2022-09-13T00:39:21;18.60;99.90
9103;DHT22;4587;51.434;6.788;2022-09-13T00:41:47;18.60;99.90
9103;DHT22;4587;51.434;6.788;2022-09-13T00:44:49;18.60;99.90
9103;DHT22;4587;51.434;6.788;2022-09-13T00:49:51;18.60;99.90
9103;DHT22;4587;51.434;6.788;2022-09-13T00:52:20;18.50;99.90
9103;DHT22;4587;51.434;6.788;2022-09-13T00:54:52;18.50;99.90
9103;DHT22;4587;51.434;6.788;2022-09-13T00:57:21;18.40;99.90
9103;DHT22;4587;51.434;6.788;2022-09-13T01:00:08;18.40;99.90
9103;DHT22;4587;51.434;6.788;2022-09-13T01:02:39;18.40;99.90
9103;DHT22;4587;51.434;6.788;2022-09-13T01:05:05;18.40;99.90
9103;DHT22;4587;51.434;6.788;2022-09-13T01:07:31;18.40;99.90
9103;DHT22;4587;51.434;6.788;2022-09-13T01:09:57;18.30;99.90
9103;DHT22;4587;51.434;6.788;2022-09-13T01:15:10;18.30;99.90
9103;DHT22;4587;51.434;6.788;2022-09-13T01:17:36;18.20;99.90
9103;DHT22;4587;51.434;6.788;2022-09-13T01:20:06;18.30;99.90
9103;DHT22;4587;51.434;6.788;2022-09-13T01:30:31;18.10;99.90
9103;DHT22;4587;51.434;6.788;2022-09-13T01:39:05;18.10;99.90
9103;DHT22;4587;51.434;6.788;2022-09-13T01:41:50;18.10;99.90
9103;DHT22;4587;51.434;6.788;2022-09-13T01:52:46;18.10;99.90
9103;DHT22;4587;51.434;6.788;2022-09-13T02:00:40;18.20;99.90
9103;DHT22;4587;51.434;6.788;2022-09-13T02:03:16;18.30;99.90
9103;DHT22;4587;51.434;6.788;2022-09-13T02:05:56;18.30;99.90
9103;DHT22;4587;51.434;6.788;2022-09-13T02:11:12;18.20;99.90
9103;DHT22;4587;51.434;6.788;2022-09-13T02:13:45;18.20;99.90
9103;DHT22;4587;51.434;6.788;2022-09-13T02:16:17;18.20;99.90
9103;DHT22;4587;51.434;6.788;2022-09-13T02:18:48;18.20;99.90
9103;DHT22;4587;51.434;6.788;2022-09-13T02:21:21;18.20;99.90
9103;DHT22;4587;51.434;6.788;2022-09-13T02:23:54;18.10;99.90
9103;DHT22;4587;51.434;6.788;2022-09-13T02:26:21;18.10;99.90
9103;DHT22;4587;51.434;6.788;2022-09-13T02:28:54;18.00;99.90
9103;DHT22;4587;51.434;6.788;2022-09-13T02:31:35;18.00;99.90
9103;DHT22;4587;51.434;6.788;2022-09-13T02:34:47;18.00;99.90
9103;DHT22;4587;51.434;6.788;2022-09-13T02:36:54;18.10;99.90
9103;DHT22;4587;51.434;6.788;2022-09-13T02:39:23;18.00;99.90
9103;DHT22;4587;51.434;6.788;2022-09-13T02:44:41;18.10;99.90
9103;DHT22;4587;51.434;6.788;2022-09-13T02:55:20;18.10;99.90
9103;DHT22;4587;51.434;6.788;2022-09-13T02:57:52;18.10;99.90
9103;DHT22;4587;51.434;6.788;2022-09-13T03:00:21;18.10;99.90
9103;DHT22;4587;51.434;6.788;2022-09-13T03:02:48;18.10;99.90
9103;DHT22;4587;51.434;6.788;2022-09-13T03:05:14;18.10;99.90
9103;DHT22;4587;51.434;6.788;2022-09-13T03:07:41;18.10;99.90
9103;DHT22;4587;51.434;6.788;2022-09-13T03:10:09;18.10;99.90
9103;DHT22;4587;51.434;6.788;2022-09-13T03:26:35;18.00;99.90
9103;DHT22;4587;51.434;6.788;2022-09-13T03:29:01;18.00;99.90
9103;DHT22;4587;51.434;6.788;2022-09-13T03:31:33;18.00;99.90
9103;DHT22;4587;51.434;6.788;2022-09-13T03:36:57;18.00;99.90
9103;DHT22;4587;51.434;6.788;2022-09-13T03:39:47;17.90;99.90
9103;DHT22;4587;51.434;6.788;2022-09-13T03:42:36;17.90;99.90
9103;DHT22;4587;51.434;6.788;2022-09-13T03:45:05;17.80;99.90
9103;DHT22;4587;51.434;6.788;2022-09-13T03:47:34;17.80;99.90
9103;DHT22;4587;51.434;6.788;2022-09-13T03:50:01;17.80;99.90
9103;DHT22;4587;51.434;6.788;2022-09-13T03:52:28;17.80;99.90
9103;DHT22;4587;51.434;6.788;2022-09-13T03:54:53;17.90;99.90
9103;DHT22;4587;51.434;6.788;2022-09-13T03:57:20;17.90;99.90
9103;DHT22;4587;51.434;6.788;2022-09-13T03:59:52;17.80;99.90
9103;DHT22;4587;51.434;6.788;2022-09-13T04:02:19;17.80;99.90
9103;DHT22;4587;51.434;6.788;2022-09-13T04:04:45;17.80;99.90
9103;DHT22;4587;51.434;6.788;2022-09-13T04:07:17;17.70;99.90
9103;DHT22;4587;51.434;6.788;2022-09-13T04:09:43;17.70;99.90
9103;DHT22;4587;51.434;6.788;2022-09-13T04:12:10;17.70;99.90
9103;DHT22;4587;51.434;6.788;2022-09-13T04:14:36;17.70;99.90
9103;DHT22;4587;51.434;6.788;2022-09-13T04:17:02;17.60;99.90
9103;DHT22;4587;51.434;6.788;2022-09-13T04:19:27;17.60;99.90
9103;DHT22;4587;51.434;6.788;2022-09-13T04:21:54;17.60;99.90
9103;DHT22;4587;51.434;6.788;2022-09-13T04:24:22;17.60;99.90
9103;DHT22;4587;51.434;6.788;2022-09-13T04:26:49;17.60;99.90
9103;DHT22;4587;51.434;6.788;2022-09-13T04:29:16;17.50;99.90
9103;DHT22;4587;51.434;6.788;2022-09-13T04:31:45;17.60;99.90
9103;DHT22;4587;51.434;6.788;2022-09-13T04:34:11;17.60;99.90
9103;DHT22;4587;51.434;6.788;2022-09-13T04:36:38;17.60;99.90
9103;DHT22;4587;51.434;6.788;2022-09-13T04:39:04;17.70;99.90
9103;DHT22;4587;51.434;6.788;2022-09-13T04:41:29;17.60;99.90
9103;DHT22;4587;51.434;6.788;2022-09-13T04:43:57;17.60;99.90
9103;DHT22;4587;51.434;6.788;2022-09-13T04:46:22;17.70;99.90
9103;DHT22;4587;51.434;6.788;2022-09-13T04:48:51;17.60;99.90
9103;DHT22;4587;51.434;6.788;2022-09-13T04:51:18;17.60;99.90
9103;DHT22;4587;51.434;6.788;2022-09-13T04:53:44;17.70;99.90
9103;DHT22;4587;51.434;6.788;2022-09-13T04:56:10;17.70;99.90
9103;DHT22;4587;51.434;6.788;2022-09-13T04:58:38;17.70;99.90
9103;DHT22;4587;51.434;6.788;2022-09-13T05:01:06;17.60;99.90
9103;DHT22;4587;51.434;6.788;2022-09-13T05:03:33;17.60;99.90
9103;DHT22;4587;51.434;6.788;2022-09-13T05:06:07;17.60;99.90
9103;DHT22;4587;51.434;6.788;2022-09-13T05:08:33;17.50;99.90
9103;DHT22;4587;51.434;6.788;2022-09-13T05:10:59;17.50;99.90
9103;DHT22;4587;51.434;6.788;2022-09-13T05:13:25;17.50;99.90
9103;DHT22;4587;51.434;6.788;2022-09-13T05:16:02;17.50;99.90
9103;DHT22;4587;51.434;6.788;2022-09-13T05:18:29;17.50;99.90
9103;DHT22;4587;51.434;6.788;2022-09-13T05:20:55;17.50;99.90
9103;DHT22;4587;51.434;6.788;2022-09-13T05:23:22;17.50;99.90
9103;DHT22;4587;51.434;6.788;2022-09-13T05:26:02;17.50;99.90
9103;DHT22;4587;51.434;6.788;2022-09-13T05:28:30;17.50;99.90
9103;DHT22;4587;51.434;6.788;2022-09-13T05:31:20;17.60;99.90
9103;DHT22;4587;51.434;6.788;2022-09-13T05:33:51;17.50;99.90
9103;DHT22;4587;51.434;6.788;2022-09-13T05:36:17;17.50;99.90
9103;DHT22;4587;51.434;6.788;2022-09-13T05:38:42;17.50;99.90
9103;DHT22;4587;51.434;6.788;2022-09-13T05:41:08;17.50;99.90
9103;DHT22;4587;51.434;6.788;2022-09-13T05:43:35;17.60;99.90
9103;DHT22;4587;51.434;6.788;2022-09-13T05:46:06;17.60;99.90
9103;DHT22;4587;51.434;6.788;2022-09-13T05:48:34;17.60;99.90
9103;DHT22;4587;51.434;6.788;2022-09-13T05:51:20;17.60;99.90
9103;DHT22;4587;51.434;6.788;2022-09-13T05:53:48;17.60;99.90
9103;DHT22;4587;51.434;6.788;2022-09-13T05:56:16;17.70;99.90
9103;DHT22;4587;51.434;6.788;2022-09-13T05:58:44;17.70;99.90
9103;DHT22;4587;51.434;6.788;2022-09-13T06:01:11;17.70;99.90
9103;DHT22;4587;51.434;6.788;2022-09-13T06:03:37;17.70;99.90
9103;DHT22;4587;51.434;6.788;2022-09-13T06:06:04;17.80;99.90
9103;DHT22;4587;51.434;6.788;2022-09-13T06:08:31;17.80;99.90
9103;DHT22;4587;51.434;6.788;2022-09-13T06:11:03;17.90;99.90
9103;DHT22;4587;51.434;6.788;2022-09-13T06:13:29;17.90;99.90
9103;DHT22;4587;51.434;6.788;2022-09-13T06:15:56;17.90;99.90
9103;DHT22;4587;51.434;6.788;2022-09-13T06:18:22;17.90;99.90
9103;DHT22;4587;51.434;6.788;2022-09-13T06:20:49;17.90;99.90
9103;DHT22;4587;51.434;6.788;2022-09-13T06:23:15;17.90;99.90
9103;DHT22;4587;51.434;6.788;2022-09-13T06:25:42;18.00;99.90
9103;DHT22;4587;51.434;6.788;2022-09-13T06:28:08;18.00;99.90
9103;DHT22;4587;51.434;6.788;2022-09-13T06:30:34;18.00;99.90
9103;DHT22;4587;51.434;6.788;2022-09-13T06:33:00;18.10;99.90
9103;DHT22;4587;51.434;6.788;2022-09-13T06:35:25;18.20;99.90
9103;DHT22;4587;51.434;6.788;2022-09-13T06:37:54;18.20;99.90
9103;DHT22;4587;51.434;6.788;2022-09-13T06:43:43;18.50;99.90
9103;DHT22;4587;51.434;6.788;2022-09-13T06:46:11;18.70;99.90
9103;DHT22;4587;51.434;6.788;2022-09-13T06:48:39;18.90;99.90
9103;DHT22;4587;51.434;6.788;2022-09-13T06:51:08;19.00;99.90
9103;DHT22;4587;51.434;6.788;2022-09-13T06:53:35;19.00;99.90
9103;DHT22;4587;51.434;6.788;2022-09-13T06:56:04;19.00;99.90
9103;DHT22;4587;51.434;6.788;2022-09-13T06:58:31;19.10;99.90
9103;DHT22;4587;51.434;6.788;2022-09-13T07:03:41;19.20;99.90
9103;DHT22;4587;51.434;6.788;2022-09-13T07:06:13;19.50;99.90
9103;DHT22;4587;51.434;6.788;2022-09-13T07:08:40;19.80;99.90
9103;DHT22;4587;51.434;6.788;2022-09-13T07:11:07;20.20;99.90
9103;DHT22;4587;51.434;6.788;2022-09-13T07:13:34;20.70;99.90
9103;DHT22;4587;51.434;6.788;2022-09-13T07:16:04;20.70;99.90
9103;DHT22;4587;51.434;6.788;2022-09-13T07:18:31;20.60;99.90
9103;DHT22;4587;51.434;6.788;2022-09-13T07:21:05;20.50;99.90
9103;DHT22;4587;51.434;6.788;2022-09-13T07:23:31;20.40;99.90
9103;DHT22;4587;51.434;6.788;2022-09-13T07:25:58;20.20;99.90
9103;DHT22;4587;51.434;6.788;2022-09-13T07:28:30;20.20;99.90
9103;DHT22;4587;51.434;6.788;2022-09-13T07:31:04;20.20;99.90
9103;DHT22;4587;51.434;6.788;2022-09-13T07:33:29;20.30;99.90
9103;DHT22;4587;51.434;6.788;2022-09-13T07:35:56;20.30;99.90
9103;DHT22;4587;51.434;6.788;2022-09-13T07:38:22;20.50;99.90
9103;DHT22;4587;51.434;6.788;2022-09-13T07:40:54;20.50;99.90
9103;DHT22;4587;51.434;6.788;2022-09-13T07:43:20;20.60;99.90
9103;DHT22;4587;51.434;6.788;2022-09-13T07:45:46;20.70;99.90
9103;DHT22;4587;51.434;6.788;2022-09-13T07:48:12;20.90;99.90
9103;DHT22;4587;51.434;6.788;2022-09-13T07:50:37;20.90;99.90
9103;DHT22;4587;51.434;6.788;2022-09-13T07:53:03;21.00;99.90
9103;DHT22;4587;51.434;6.788;2022-09-13T07:55:29;21.00;99.90
9103;DHT22;4587;51.434;6.788;2022-09-13T07:57:55;21.10;99.90
9103;DHT22;4587;51.434;6.788;2022-09-13T08:00:22;21.00;99.90
9103;DHT22;4587;51.434;6.788;2022-09-13T08:02:48;21.10;99.90
9103;DHT22;4587;51.434;6.788;2022-09-13T08:05:14;21.30;99.90
9103;DHT22;4587;51.434;6.788;2022-09-13T08:07:39;21.60;99.90
9103;DHT22;4587;51.434;6.788;2022-09-13T08:10:05;22.50;99.90
9103;DHT22;4587;51.434;6.788;2022-09-13T08:12:31;22.80;99.90
9103;DHT22;4587;51.434;6.788;2022-09-13T08:14:56;22.90;99.90
9103;DHT22;4587;51.434;6.788;2022-09-13T08:17:22;23.20;99.90
9103;DHT22;4587;51.434;6.788;2022-09-13T08:19:47;23.50;99.90
9103;DHT22;4587;51.434;6.788;2022-09-13T08:22:13;23.60;99.90
9103;DHT22;4587;51.434;6.788;2022-09-13T08:24:38;23.40;99.90
9103;DHT22;4587;51.434;6.788;2022-09-13T08:27:04;23.20;99.90
9103;DHT22;4587;51.434;6.788;2022-09-13T08:29:29;23.10;99.90
9103;DHT22;4587;51.434;6.788;2022-09-13T08:31:55;23.10;99.90
9103;DHT22;4587;51.434;6.788;2022-09-13T08:34:20;23.20;99.90
9103;DHT22;4587;51.434;6.788;2022-09-13T08:36:46;23.30;99.90
9103;DHT22;4587;51.434;6.788;2022-09-13T08:39:12;23.30;99.90
9103;DHT22;4587;51.434;6.788;2022-09-13T08:49:33;23.30;99.90
9103;DHT22;4587;51.434;6.788;2022-09-13T08:54:39;23.20;99.90
9103;DHT22;4587;51.434;6.788;2022-09-13T09:02:50;23.80;99.90
9103;DHT22;4587;51.434;6.788;2022-09-13T09:05:25;23.90;99.90
9103;DHT22;4587;51.434;6.788;2022-09-13T09:08:02;24.00;99.90
9103;DHT22;4587;51.434;6.788;2022-09-13T09:10:34;24.10;99.90
9103;DHT22;4587;51.434;6.788;2022-09-13T09:15:52;24.30;99.90
9103;DHT22;4587;51.434;6.788;2022-09-13T09:18:39;24.40;99.90
9103;DHT22;4587;51.434;6.788;2022-09-13T09:21:15;24.40;99.90
9103;DHT22;4587;51.434;6.788;2022-09-13T09:26:23;24.60;99.90
9103;DHT22;4587;51.434;6.788;2022-09-13T09:28:56;24.70;99.90
9103;DHT22;4587;51.434;6.788;2022-09-13T09:35:20;24.80;99.90
9103;DHT22;4587;51.434;6.788;2022-09-13T09:37:18;24.80;99.90
9103;DHT22;4587;51.434;6.788;2022-09-13T09:39:46;24.90;99.90
9103;DHT22;4587;51.434;6.788;2022-09-13T09:42:15;25.00;99.90
9103;DHT22;4587;51.434;6.788;2022-09-13T09:44:45;25.00;99.90
9103;DHT22;4587;51.434;6.788;2022-09-13T09:47:19;25.10;99.90
9103;DHT22;4587;51.434;6.788;2022-09-13T09:49:50;25.20;99.90
9103;DHT22;4587;51.434;6.788;2022-09-13T09:52:51;25.20;99.90
9103;DHT22;4587;51.434;6.788;2022-09-13T09:55:48;25.40;99.90
9103;DHT22;4587;51.434;6.788;2022-09-13T09:58:16;25.40;99.90
9103;DHT22;4587;51.434;6.788;2022-09-13T10:00:57;25.60;99.90
9103;DHT22;4587;51.434;6.788;2022-09-13T10:03:31;25.60;99.90
9103;DHT22;4587;51.434;6.788;2022-09-13T10:06:14;25.60;99.90
9103;DHT22;4587;51.434;6.788;2022-09-13T10:08:47;25.60;99.90
9103;DHT22;4587;51.434;6.788;2022-09-13T10:11:19;25.60;99.90
9103;DHT22;4587;51.434;6.788;2022-09-13T10:14:00;25.60;99.90
9103;DHT22;4587;51.434;6.788;2022-09-13T10:16:28;25.60;99.90
9103;DHT22;4587;51.434;6.788;2022-09-13T10:19:24;25.40;99.90
9103;DHT22;4587;51.434;6.788;2022-09-13T10:22:03;25.40;99.90
9103;DHT22;4587;51.434;6.788;2022-09-13T10:24:30;25.40;99.90
9103;DHT22;4587;51.434;6.788;2022-09-13T10:26:57;25.30;99.90
9103;DHT22;4587;51.434;6.788;2022-09-13T10:29:25;25.30;99.90
9103;DHT22;4587;51.434;6.788;2022-09-13T10:31:52;25.30;99.90
9103;DHT22;4587;51.434;6.788;2022-09-13T10:34:26;25.20;99.90
9103;DHT22;4587;51.434;6.788;2022-09-13T10:37:02;25.20;99.90
9103;DHT22;4587;51.434;6.788;2022-09-13T10:39:30;25.20;99.90
9103;DHT22;4587;51.434;6.788;2022-09-13T10:42:01;25.30;99.90
9103;DHT22;4587;51.434;6.788;2022-09-13T10:44:38;25.30;99.90
9103;DHT22;4587;51.434;6.788;2022-09-13T10:47:21;25.40;99.90
9103;DHT22;4587;51.434;6.788;2022-09-13T10:49:52;25.40;99.90
9103;DHT22;4587;51.434;6.788;2022-09-13T10:52:29;25.40;99.90
9103;DHT22;4587;51.434;6.788;2022-09-13T10:57:47;25.60;99.90
9103;DHT22;4587;51.434;6.788;2022-09-13T11:00:16;25.60;99.90
9103;DHT22;4587;51.434;6.788;2022-09-13T11:05:31;25.50;99.90
9103;DHT22;4587;51.434;6.788;2022-09-13T11:08:08;25.50;99.90
9103;DHT22;4587;51.434;6.788;2022-09-13T11:13:59;25.60;99.90
9103;DHT22;4587;51.434;6.788;2022-09-13T11:25:23;25.40;99.90
9103;DHT22;4587;51.434;6.788;2022-09-13T11:28:27;25.40;99.90
9103;DHT22;4587;51.434;6.788;2022-09-13T11:34:03;25.60;99.90
9103;DHT22;4587;51.434;6.788;2022-09-13T11:39:40;25.60;99.90
9103;DHT22;4587;51.434;6.788;2022-09-13T11:45:28;25.50;99.90
9103;DHT22;4587;51.434;6.788;2022-09-13T11:51:14;25.40;99.90
9103;DHT22;4587;51.434;6.788;2022-09-13T11:56:41;25.30;99.90
9103;DHT22;4587;51.434;6.788;2022-09-13T12:02:26;25.30;99.90
9103;DHT22;4587;51.434;6.788;2022-09-13T12:05:07;25.40;99.90
9103;DHT22;4587;51.434;6.788;2022-09-13T12:07:43;25.50;99.90
9103;DHT22;4587;51.434;6.788;2022-09-13T12:10:27;25.70;99.90
9103;DHT22;4587;51.434;6.788;2022-09-13T12:12:55;25.80;99.90
9103;DHT22;4587;51.434;6.788;2022-09-13T12:15:34;25.80;99.90
9103;DHT22;4587;51.434;6.788;2022-09-13T12:18:15;25.90;99.90
9103;DHT22;4587;51.434;6.788;2022-09-13T12:20:47;26.00;99.90
9103;DHT22;4587;51.434;6.788;2022-09-13T12:23:20;26.10;99.90
9103;DHT22;4587;51.434;6.788;2022-09-13T12:25:50;26.20;99.90
9103;DHT22;4587;51.434;6.788;2022-09-13T12:28:28;26.30;99.90
9103;DHT22;4587;51.434;6.788;2022-09-13T12:31:09;26.30;99.90
9103;DHT22;4587;51.434;6.788;2022-09-13T12:33:39;26.40;99.90
9103;DHT22;4587;51.434;6.788;2022-09-13T12:45:13;26.20;99.90
9103;DHT22;4587;51.434;6.788;2022-09-13T13:01:54;26.10;99.90
9103;DHT22;4587;51.434;6.788;2022-09-13T13:04:32;26.10;99.90
9103;DHT22;4587;51.434;6.788;2022-09-13T13:07:05;26.20;99.90
9103;DHT22;4587;51.434;6.788;2022-09-13T13:09:42;26.20;99.90
9103;DHT22;4587;51.434;6.788;2022-09-13T13:12:32;26.20;99.90
9103;DHT22;4587;51.434;6.788;2022-09-13T13:14:56;26.30;99.90
9103;DHT22;4587;51.434;6.788;2022-09-13T13:23:23;26.30;99.90
9103;DHT22;4587;51.434;6.788;2022-09-13T13:46:41;26.00;99.90
9103;DHT22;4587;51.434;6.788;2022-09-13T13:54:57;26.00;99.90
9103;DHT22;4587;51.434;6.788;2022-09-13T13:57:30;26.00;99.90
9103;DHT22;4587;51.434;6.788;2022-09-13T14:05:28;26.00;99.90
9103;DHT22;4587;51.434;6.788;2022-09-13T14:18:37;25.80;99.90
9103;DHT22;4587;51.434;6.788;2022-09-13T14:21:35;25.70;99.90
9103;DHT22;4587;51.434;6.788;2022-09-13T14:24:21;25.70;99.90
9103;DHT22;4587;51.434;6.788;2022-09-13T14:26:56;25.80;99.90
9103;DHT22;4587;51.434;6.788;2022-09-13T14:29:22;25.80;99.90
9103;DHT22;4587;51.434;6.788;2022-09-13T14:31:51;25.80;99.90
9103;DHT22;4587;51.434;6.788;2022-09-13T14:34:20;25.80;99.90
9103;DHT22;4587;51.434;6.788;2022-09-13T14:36:58;25.70;99.90
9103;DHT22;4587;51.434;6.788;2022-09-13T14:39:26;25.70;99.90
9103;DHT22;4587;51.434;6.788;2022-09-13T14:42:00;25.60;99.90
9103;DHT22;4587;51.434;6.788;2022-09-13T14:44:26;25.60;99.90
9103;DHT22;4587;51.434;6.788;2022-09-13T14:46:58;25.70;99.90
9103;DHT22;4587;51.434;6.788;2022-09-13T14:49:31;25.80;99.90
9103;DHT22;4587;51.434;6.788;2022-09-13T14:52:07;25.80;99.90
9103;DHT22;4587;51.434;6.788;2022-09-13T14:54:46;25.80;99.90
9103;DHT22;4587;51.434;6.788;2022-09-13T14:57:29;25.70;99.90
9103;DHT22;4587;51.434;6.788;2022-09-13T15:00:05;25.60;99.90
9103;DHT22;4587;51.434;6.788;2022-09-13T15:02:37;25.60;99.90
9103;DHT22;4587;51.434;6.788;2022-09-13T15:05:07;25.50;99.90
9103;DHT22;4587;51.434;6.788;2022-09-13T15:07:38;25.50;99.90
9103;DHT22;4587;51.434;6.788;2022-09-13T15:12:31;25.40;99.90
9103;DHT22;4587;51.434;6.788;2022-09-13T15:18:05;25.40;99.90
9103;DHT22;4587;51.434;6.788;2022-09-13T15:20:58;25.40;99.90
9103;DHT22;4587;51.434;6.788;2022-09-13T15:26:20;25.20;99.90
9103;DHT22;4587;51.434;6.788;2022-09-13T15:28:48;25.10;99.90
9103;DHT22;4587;51.434;6.788;2022-09-13T15:31:22;24.90;99.90
9103;DHT22;4587;51.434;6.788;2022-09-13T15:36:44;24.80;99.90
9103;DHT22;4587;51.434;6.788;2022-09-13T15:39:16;24.80;99.90
9103;DHT22;4587;51.434;6.788;2022-09-13T15:41:56;24.70;99.90
9103;DHT22;4587;51.434;6.788;2022-09-13T15:44:23;24.70;99.90
9103;DHT22;4587;51.434;6.788;2022-09-13T15:46:51;24.70;99.90
9103;DHT22;4587;51.434;6.788;2022-09-13T15:49:20;24.70;99.90
9103;DHT22;4587;51.434;6.788;2022-09-13T15:51:46;24.70;99.90
9103;DHT22;4587;51.434;6.788;2022-09-13T15:54:17;24.70;99.90
9103;DHT22;4587;51.434;6.788;2022-09-13T15:56:47;24.60;99.90
9103;DHT22;4587;51.434;6.788;2022-09-13T15:59:17;24.60;99.90
9103;DHT22;4587;51.434;6.788;2022-09-13T16:01:44;24.60;99.90
9103;DHT22;4587;51.434;6.788;2022-09-13T16:04:10;24.60;99.90
9103;DHT22;4587;51.434;6.788;2022-09-13T16:06:37;24.60;99.90
9103;DHT22;4587;51.434;6.788;2022-09-13T16:09:32;24.50;99.90
9103;DHT22;4587;51.434;6.788;2022-09-13T16:11:57;24.50;99.90
9103;DHT22;4587;51.434;6.788;2022-09-13T16:14:29;24.40;99.90
9103;DHT22;4587;51.434;6.788;2022-09-13T16:16:54;24.40;99.90
9103;DHT22;4587;51.434;6.788;2022-09-13T16:19:21;24.40;99.90
9103;DHT22;4587;51.434;6.788;2022-09-13T16:21:48;24.30;99.90
9103;DHT22;4587;51.434;6.788;2022-09-13T16:24:14;24.30;99.90
9103;DHT22;4587;51.434;6.788;2022-09-13T16:26:40;24.20;99.90
9103;DHT22;4587;51.434;6.788;2022-09-13T16:29:06;24.20;99.90
9103;DHT22;4587;51.434;6.788;2022-09-13T16:31:32;24.20;99.90
9103;DHT22;4587;51.434;6.788;2022-09-13T16:33:58;24.20;99.90
9103;DHT22;4587;51.434;6.788;2022-09-13T16:36:24;24.10;99.90
9103;DHT22;4587;51.434;6.788;2022-09-13T16:38:55;24.00;99.90
9103;DHT22;4587;51.434;6.788;2022-09-13T16:41:22;24.00;99.90
9103;DHT22;4587;51.434;6.788;2022-09-13T16:43:47;24.00;99.90
9103;DHT22;4587;51.434;6.788;2022-09-13T16:46:13;24.00;99.90
9103;DHT22;4587;51.434;6.788;2022-09-13T16:48:40;23.90;99.90
9103;DHT22;4587;51.434;6.788;2022-09-13T16:51:08;23.80;99.90
9103;DHT22;4587;51.434;6.788;2022-09-13T16:53:35;23.80;99.90
9103;DHT22;4587;51.434;6.788;2022-09-13T16:56:15;23.80;99.90
9103;DHT22;4587;51.434;6.788;2022-09-13T16:58:43;23.80;99.90
9103;DHT22;4587;51.434;6.788;2022-09-13T17:01:12;23.80;99.90
9103;DHT22;4587;51.434;6.788;2022-09-13T17:03:38;23.70;99.90
9103;DHT22;4587;51.434;6.788;2022-09-13T17:06:07;23.70;99.90
9103;DHT22;4587;51.434;6.788;2022-09-13T17:08:34;23.70;99.90
9103;DHT22;4587;51.434;6.788;2022-09-13T17:11:05;23.60;99.90
9103;DHT22;4587;51.434;6.788;2022-09-13T17:13:30;23.60;99.90
9103;DHT22;4587;51.434;6.788;2022-09-13T17:15:56;23.50;99.90
9103;DHT22;4587;51.434;6.788;2022-09-13T17:18:22;23.50;99.90
9103;DHT22;4587;51.434;6.788;2022-09-13T17:20:49;23.50;99.90
9103;DHT22;4587;51.434;6.788;2022-09-13T17:23:15;23.40;99.90
9103;DHT22;4587;51.434;6.788;2022-09-13T17:25:42;23.40;99.90
9103;DHT22;4587;51.434;6.788;2022-09-13T17:28:14;23.30;99.90
9103;DHT22;4587;51.434;6.788;2022-09-13T17:30:40;23.30;99.90
9103;DHT22;4587;51.434;6.788;2022-09-13T17:33:07;23.20;99.90
9103;DHT22;4587;51.434;6.788;2022-09-13T17:35:33;23.20;99.90
9103;DHT22;4587;51.434;6.788;2022-09-13T17:37:59;23.20;99.90
9103;DHT22;4587;51.434;6.788;2022-09-13T17:40:26;23.10;99.90
9103;DHT22;4587;51.434;6.788;2022-09-13T17:42:53;23.10;99.90
9103;DHT22;4587;51.434;6.788;2022-09-13T17:45:19;23.10;99.90
9103;DHT22;4587;51.434;6.788;2022-09-13T17:47:45;23.10;99.90
9103;DHT22;4587;51.434;6.788;2022-09-13T17:50:11;23.00;99.90
9103;DHT22;4587;51.434;6.788;2022-09-13T17:52:37;23.00;99.90
9103;DHT22;4587;51.434;6.788;2022-09-13T17:55:02;23.00;99.90
9103;DHT22;4587;51.434;6.788;2022-09-13T17:57:28;23.00;99.90
9103;DHT22;4587;51.434;6.788;2022-09-13T17:59:54;22.90;99.90
9103;DHT22;4587;51.434;6.788;2022-09-13T18:02:20;22.90;99.90
9103;DHT22;4587;51.434;6.788;2022-09-13T18:04:47;22.80;99.90
9103;DHT22;4587;51.434;6.788;2022-09-13T18:07:15;22.80;99.90
9103;DHT22;4587;51.434;6.788;2022-09-13T18:09:40;22.70;99.90
9103;DHT22;4587;51.434;6.788;2022-09-13T18:12:06;22.70;99.90
9103;DHT22;4587;51.434;6.788;2022-09-13T18:14:31;22.70;99.90
9103;DHT22;4587;51.434;6.788;2022-09-13T18:16:57;22.70;99.90
9103;DHT22;4587;51.434;6.788;2022-09-13T18:19:23;22.60;99.90
9103;DHT22;4587;51.434;6.788;2022-09-13T18:21:49;22.60;99.90
9103;DHT22;4587;51.434;6.788;2022-09-13T18:24:15;22.60;99.90
9103;DHT22;4587;51.434;6.788;2022-09-13T18:26:41;22.60;99.90
9103;DHT22;4587;51.434;6.788;2022-09-13T18:29:10;22.60;99.90
9103;DHT22;4587;51.434;6.788;2022-09-13T18:31:38;22.60;99.90
9103;DHT22;4587;51.434;6.788;2022-09-13T18:34:14;22.60;99.90
9103;DHT22;4587;51.434;6.788;2022-09-13T18:36:40;22.60;99.90
9103;DHT22;4587;51.434;6.788;2022-09-13T18:39:08;22.50;99.90
9103;DHT22;4587;51.434;6.788;2022-09-13T18:41:38;22.50;99.90
9103;DHT22;4587;51.434;6.788;2022-09-13T18:44:08;22.50;99.90
9103;DHT22;4587;51.434;6.788;2022-09-13T18:46:34;22.50;99.90
9103;DHT22;4587;51.434;6.788;2022-09-13T18:49:00;22.40;99.90
9103;DHT22;4587;51.434;6.788;2022-09-13T18:51:32;22.40;99.90
9103;DHT22;4587;51.434;6.788;2022-09-13T18:53:58;22.40;99.90
9103;DHT22;4587;51.434;6.788;2022-09-13T18:56:25;22.40;99.90
9103;DHT22;4587;51.434;6.788;2022-09-13T18:58:52;22.40;99.90
9103;DHT22;4587;51.434;6.788;2022-09-13T19:01:27;22.30;99.90
9103;DHT22;4587;51.434;6.788;2022-09-13T19:03:58;22.40;99.90
9103;DHT22;4587;51.434;6.788;2022-09-13T19:06:27;22.30;99.90
9103;DHT22;4587;51.434;6.788;2022-09-13T19:08:55;22.30;99.90
9103;DHT22;4587;51.434;6.788;2022-09-13T19:11:22;22.20;99.90
9103;DHT22;4587;51.434;6.788;2022-09-13T19:13:48;22.20;99.90
9103;DHT22;4587;51.434;6.788;2022-09-13T19:16:17;22.10;99.90
9103;DHT22;4587;51.434;6.788;2022-09-13T19:18:44;22.10;99.90
9103;DHT22;4587;51.434;6.788;2022-09-13T19:21:15;22.10;99.90
9103;DHT22;4587;51.434;6.788;2022-09-13T19:23:43;22.10;99.90
9103;DHT22;4587;51.434;6.788;2022-09-13T19:26:16;22.00;99.90
9103;DHT22;4587;51.434;6.788;2022-09-13T19:28:50;22.00;99.90
9103;DHT22;4587;51.434;6.788;2022-09-13T19:31:17;21.90;99.90
9103;DHT22;4587;51.434;6.788;2022-09-13T19:33:44;22.00;99.90
9103;DHT22;4587;51.434;6.788;2022-09-13T19:36:13;21.90;99.90
9103;DHT22;4587;51.434;6.788;2022-09-13T19:38:40;21.90;99.90
9103;DHT22;4587;51.434;6.788;2022-09-13T19:41:08;21.90;99.90
9103;DHT22;4587;51.434;6.788;2022-09-13T19:43:35;21.90;99.90
9103;DHT22;4587;51.434;6.788;2022-09-13T19:46:04;21.80;99.90
9103;DHT22;4587;51.434;6.788;2022-09-13T19:48:30;21.70;99.90
9103;DHT22;4587;51.434;6.788;2022-09-13T19:51:01;21.70;99.90
9103;DHT22;4587;51.434;6.788;2022-09-13T19:53:28;21.60;99.90